Time;durP1;ratioP1;P1;durP2;ratioP2;P2;SDS_P1;SDS_P2;PMS_P1;PMS_P2;Temp;Humidity;BMP_temperature;BMP_pressure;BME280_temperature;BME280_humidity;BME280_pressure;Samples;Min_cycle;Max_cycle;Signal;HPM_P1;HPM_P2
2023/06/18 00:00:57;;;;;;;12.68;8.00;;;;;;;21.10;68.36;100969.44;6164705;23;20013;-78
2023/06/18 00:03:22;;;;;;;12.32;7.30;;;;;;;20.89;70.61;100972.03;6163608;23;20087;-77
2023/06/18 00:05:48;;;;;;;12.20;7.78;;;;;;;20.93;69.17;100971.50;6188767;23;20013;-78
2023/06/18 00:08:15;;;;;;;9.48;7.75;;;;;;;20.88;69.57;100971.19;6213660;23;20020;-77
2023/06/18 00:10:40;;;;;;;13.98;7.95;;;;;;;20.95;67.22;100973.25;6188666;23;20347;-77
2023/06/18 00:13:06;;;;;;;9.88;7.50;;;;;;;20.85;68.30;100970.69;6213372;23;20083;-77
2023/06/18 00:15:32;;;;;;;12.43;7.93;;;;;;;20.81;68.29;100970.22;6163325;23;20474;-76
2023/06/18 00:17:57;;;;;;;13.30;8.23;;;;;;;20.70;69.40;100968.72;6214312;23;20321;-76
2023/06/18 00:20:23;;;;;;;9.05;7.57;;;;;;;20.56;69.75;100955.56;6188560;23;20019;-77
2023/06/18 00:22:53;;;;;;;14.70;8.10;;;;;;;20.58;71.01;100964.63;6189738;23;20040;-76
2023/06/18 00:25:19;;;;;;;17.00;8.50;;;;;;;20.51;70.82;100963.59;6213117;23;20020;-76
2023/06/18 00:27:45;;;;;;;11.13;7.68;;;;;;;20.48;72.41;100967.66;6188905;23;20445;-76
2023/06/18 00:30:11;;;;;;;18.25;8.23;;;;;;;20.46;70.89;100960.50;6215330;23;20062;-76
2023/06/18 00:32:36;;;;;;;14.57;8.77;;;;;;;20.50;70.76;100964.69;6189361;23;20441;-76
2023/06/18 00:35:02;;;;;;;14.50;8.43;;;;;;;20.44;70.91;100963.47;6216796;23;20043;-77
2023/06/18 00:37:28;;;;;;;12.20;8.68;;;;;;;20.31;71.65;100961.28;6214945;23;20855;-76
2023/06/18 00:39:55;;;;;;;18.38;8.82;;;;;;;20.27;72.36;100959.09;6214181;23;20009;-77
2023/06/18 00:42:20;;;;;;;14.70;9.27;;;;;;;20.25;72.44;100961.16;6165804;23;20012;-76
2023/06/18 00:44:46;;;;;;;19.38;9.23;;;;;;;20.15;75.46;100955.81;6190374;23;20306;-75
2023/06/18 00:47:12;;;;;;;12.57;8.90;;;;;;;20.06;77.95;100946.69;6214867;23;20008;-77
2023/06/18 00:49:44;;;;;;;14.98;8.95;;;;;;;20.10;78.89;100950.84;6217214;23;20017;-77
2023/06/18 00:52:12;;;;;;;20.23;9.73;;;;;;;19.95;80.22;100945.16;6215238;23;20024;-77
2023/06/18 00:54:40;;;;;;;14.57;8.38;;;;;;;19.86;81.06;100943.47;6215458;23;20711;-76
2023/06/18 00:57:08;;;;;;;12.32;9.55;;;;;;;19.65;83.46;100944.03;6163164;23;20016;-76
2023/06/18 00:59:37;;;;;;;12.95;10.10;;;;;;;19.54;85.73;100944.44;6215920;23;20042;-76
2023/06/18 01:02:03;;;;;;;15.95;9.02;;;;;;;19.51;85.12;100942.00;6212982;23;20012;-76
2023/06/18 01:04:33;;;;;;;13.82;9.80;;;;;;;19.62;83.71;100941.63;6212290;23;20143;-77
2023/06/18 01:07:04;;;;;;;11.80;9.40;;;;;;;19.61;83.26;100937.09;6187169;23;20016;-76
2023/06/18 01:09:30;;;;;;;9.82;8.82;;;;;;;19.65;80.88;100935.72;6186651;23;20012;-76
2023/06/18 01:12:00;;;;;;;11.07;9.23;;;;;;;19.70;81.41;100935.19;6187957;23;20005;-77
2023/06/18 01:14:27;;;;;;;14.20;9.07;;;;;;;19.53;82.66;100931.56;6212701;23;20047;-77
2023/06/18 01:16:59;;;;;;;14.07;9.43;;;;;;;19.40;83.77;100938.56;6212787;23;20048;-76
2023/06/18 01:19:47;;;;;;;12.98;9.10;;;;;;;19.36;84.29;100931.63;6212796;23;20008;-76
2023/06/18 01:22:40;;;;;;;15.20;9.93;;;;;;;19.26;84.39;100940.13;6211519;23;20139;-77
2023/06/18 01:25:07;;;;;;;13.30;9.32;;;;;;;19.19;86.18;100938.28;6215199;23;20311;-75
2023/06/18 01:27:40;;;;;;;12.75;9.23;;;;;;;19.11;86.97;100933.59;6190152;23;20012;-76
2023/06/18 01:30:09;;;;;;;14.15;10.07;;;;;;;19.09;87.04;100932.91;6167414;23;20355;-76
2023/06/18 01:32:36;;;;;;;15.38;9.48;;;;;;;19.03;89.40;100933.59;6217464;23;20462;-77
2023/06/18 01:35:03;;;;;;;16.02;9.27;;;;;;;19.05;89.32;100925.97;6190405;23;20015;-77
2023/06/18 01:38:03;;;;;;;10.30;9.30;;;;;;;19.09;89.44;100931.00;6189962;23;20013;-76
2023/06/18 01:41:06;;;;;;;11.65;9.85;;;;;;;19.15;88.50;100925.78;6217222;23;20013;-77
2023/06/18 01:43:42;;;;;;;16.52;9.10;;;;;;;19.08;89.67;100923.69;6209919;23;20009;-78
2023/06/18 01:46:15;;;;;;;9.40;8.40;;;;;;;19.08;88.34;100920.06;6216171;23;20008;-76
2023/06/18 01:48:45;;;;;;;18.75;8.65;;;;;;;19.06;89.13;100924.94;6215915;23;20094;-75
2023/06/18 01:51:16;;;;;;;12.40;9.23;;;;;;;18.98;89.82;100922.16;6215232;23;20055;-76
2023/06/18 01:53:43;;;;;;;24.02;9.88;;;;;;;18.97;88.57;100914.88;6215603;23;20023;-75
2023/06/18 01:56:09;;;;;;;11.70;9.02;;;;;;;19.05;87.71;100920.41;6214710;23;20016;-75
2023/06/18 01:58:36;;;;;;;13.30;9.10;;;;;;;19.05;87.88;100917.63;6216929;23;20013;-76
2023/06/18 02:01:02;;;;;;;13.95;9.77;;;;;;;18.95;88.78;100914.19;6215552;23;20013;-75
2023/06/18 02:03:28;;;;;;;11.70;9.20;;;;;;;18.88;89.15;100908.47;6215316;23;20487;-75
2023/06/18 02:05:54;;;;;;;11.55;9.27;;;;;;;18.72;90.90;100909.31;6214562;23;20044;-76
2023/06/18 02:08:20;;;;;;;13.90;9.60;;;;;;;18.56;92.52;100907.38;6190684;23;20015;-76
2023/06/18 02:10:45;;;;;;;13.52;10.57;;;;;;;18.47;94.12;100905.66;6190513;23;20013;-76
2023/06/18 02:13:11;;;;;;;12.85;10.05;;;;;;;18.36;95.36;100902.19;6190370;23;20054;-76
2023/06/18 02:15:37;;;;;;;11.25;9.63;;;;;;;18.37;95.31;100903.91;6240896;23;20058;-75
2023/06/18 02:18:03;;;;;;;14.55;10.20;;;;;;;18.30;96.51;100902.00;6190044;23;20013;-76
2023/06/18 02:20:28;;;;;;;13.05;10.32;;;;;;;18.27;96.52;100902.34;6190793;23;20020;-76
2023/06/18 02:22:54;;;;;;;13.20;9.88;;;;;;;18.29;97.06;100903.03;6215130;23;20120;-77
2023/06/18 02:25:28;;;;;;;15.43;10.10;;;;;;;18.35;95.54;100896.81;6164700;23;20099;-77
2023/06/18 02:27:56;;;;;;;15.32;10.35;;;;;;;18.33;95.07;100901.66;6240818;23;20009;-77
2023/06/18 02:30:21;;;;;;;12.50;10.25;;;;;;;18.37;94.92;100898.38;6216176;23;20012;-76
2023/06/18 02:32:48;;;;;;;15.75;9.90;;;;;;;18.35;95.10;100900.47;6217333;23;20019;-76
2023/06/18 02:35:15;;;;;;;15.45;10.00;;;;;;;18.31;94.50;100892.66;6214963;23;20435;-79
2023/06/18 02:37:41;;;;;;;13.52;10.77;;;;;;;18.24;93.74;100898.00;6164286;23;20008;-76
2023/06/18 02:40:07;;;;;;;12.95;10.32;;;;;;;18.40;93.93;100901.81;6214931;23;20005;-75
2023/06/18 02:42:33;;;;;;;17.70;10.88;;;;;;;18.29;93.44;100890.03;6238564;23;20013;-78
2023/06/18 02:44:59;;;;;;;19.10;10.98;;;;;;;18.21;94.07;100903.03;6214198;23;20008;-77
2023/06/18 02:47:25;;;;;;;16.48;10.13;;;;;;;18.17;94.37;100897.81;6238928;23;20087;-76
2023/06/18 02:49:50;;;;;;;18.30;11.25;;;;;;;18.13;94.12;100896.41;6188930;23;20084;-76
2023/06/18 02:52:15;;;;;;;17.52;10.88;;;;;;;17.99;95.20;100902.66;6215217;23;20001;-76
2023/06/18 02:54:43;;;;;;;16.23;10.43;;;;;;;17.95;96.15;100895.69;6212762;23;20096;-75
2023/06/18 02:57:09;;;;;;;16.67;10.07;;;;;;;17.95;96.45;100901.22;6164466;23;20020;-77
2023/06/18 02:59:34;;;;;;;21.63;11.90;;;;;;;17.90;97.96;100893.41;6188757;23;20057;-76
2023/06/18 03:02:01;;;;;;;15.55;11.65;;;;;;;17.92;98.29;100891.38;6213900;23;20055;-77
2023/06/18 03:04:26;;;;;;;16.42;11.40;;;;;;;17.89;98.59;100886.16;6189176;23;20016;-75
2023/06/18 03:06:54;;;;;;;16.00;11.48;;;;;;;17.86;100.00;100894.78;6212624;23;20459;-76
2023/06/18 03:09:19;;;;;;;17.17;11.75;;;;;;;17.67;100.00;100892.28;6215203;23;20005;-75
2023/06/18 03:11:45;;;;;;;21.52;12.32;;;;;;;17.65;100.00;100889.69;6238841;23;20026;-76
2023/06/18 03:14:10;;;;;;;16.10;11.65;;;;;;;17.55;100.00;100886.19;6212712;23;20017;-76
2023/06/18 03:16:36;;;;;;;26.45;11.13;;;;;;;17.55;100.00;100886.19;6215301;23;20313;-76
2023/06/18 03:19:03;;;;;;;15.13;11.30;;;;;;;17.52;100.00;100880.97;6212884;23;20443;-78
2023/06/18 03:21:28;;;;;;;19.00;10.77;;;;;;;17.51;100.00;100887.53;6188863;23;20032;-75
2023/06/18 03:23:54;;;;;;;16.58;10.80;;;;;;;17.45;100.00;100875.25;6214306;23;20420;-74
2023/06/18 03:26:19;;;;;;;18.35;12.90;;;;;;;17.37;100.00;100884.38;6239045;23;20036;-77
2023/06/18 03:28:46;;;;;;;18.35;11.00;;;;;;;17.34;100.00;100890.22;6188928;23;20047;-76
2023/06/18 03:31:12;;;;;;;15.77;11.30;;;;;;;17.17;100.00;100888.41;6214234;23;20282;-77
2023/06/18 03:33:37;;;;;;;19.70;11.25;;;;;;;17.23;100.00;100890.50;6138498;23;20068;-77
2023/06/18 03:36:05;;;;;;;16.90;11.20;;;;;;;17.29;100.00;100889.84;6237529;23;20032;-78
2023/06/18 03:38:31;;;;;;;20.63;12.25;;;;;;;17.49;100.00;100886.84;6213294;23;20009;-79
2023/06/18 03:40:58;;;;;;;15.48;11.30;;;;;;;17.43;100.00;100900.31;6213219;23;20015;-75
2023/06/18 03:43:23;;;;;;;14.27;10.80;;;;;;;17.44;100.00;100902.03;6213065;23;20013;-76
2023/06/18 03:45:49;;;;;;;18.42;11.50;;;;;;;17.33;100.00;100902.34;6212838;23;20017;-75
2023/06/18 03:48:14;;;;;;;19.52;11.60;;;;;;;17.37;100.00;100898.19;6187176;23;20143;-77
2023/06/18 03:50:40;;;;;;;17.58;11.82;;;;;;;17.55;100.00;100908.34;6213012;23;20044;-76
2023/06/18 03:53:06;;;;;;;14.73;11.27;;;;;;;17.51;100.00;100902.25;6186439;23;20021;-76
2023/06/18 03:55:31;;;;;;;20.50;11.63;;;;;;;17.48;100.00;100907.25;6187008;23;20437;-77
2023/06/18 03:57:57;;;;;;;19.55;11.43;;;;;;;17.66;100.00;100902.50;6237755;23;20067;-76
2023/06/18 04:00:22;;;;;;;17.70;11.35;;;;;;;17.66;100.00;100913.56;6213123;23;20020;-77
2023/06/18 04:02:48;;;;;;;19.25;11.82;;;;;;;17.58;100.00;100906.09;6212984;23;20019;-76
2023/06/18 04:05:13;;;;;;;15.23;11.88;;;;;;;17.64;100.00;100910.97;6188894;23;20009;-76
2023/06/18 04:07:39;;;;;;;15.65;12.20;;;;;;;17.75;100.00;100914.47;6187298;23;20443;-77
2023/06/18 04:10:05;;;;;;;17.88;12.13;;;;;;;17.73;100.00;100919.31;6214183;23;20095;-76
2023/06/18 04:12:30;;;;;;;21.30;12.82;;;;;;;17.73;100.00;100913.78;6238187;23;20005;-77
2023/06/18 04:14:56;;;;;;;17.70;13.43;;;;;;;17.69;100.00;100907.69;6212262;23;20016;-75
2023/06/18 04:17:21;;;;;;;16.33;12.57;;;;;;;17.79;100.00;100913.97;6212410;23;20340;-75
2023/06/18 04:19:46;;;;;;;15.15;12.73;;;;;;;17.72;100.00;100912.88;6212186;23;20016;-76
2023/06/18 04:22:12;;;;;;;20.17;12.20;;;;;;;17.67;100.00;100908.91;6162660;23;20104;-76
2023/06/18 04:24:37;;;;;;;17.83;12.55;;;;;;;17.62;100.00;100926.00;6214088;23;20146;-75
2023/06/18 04:27:03;;;;;;;22.75;12.23;;;;;;;17.61;100.00;100921.50;6187173;23;20017;-77
2023/06/18 04:29:30;;;;;;;18.00;13.05;;;;;;;17.70;100.00;100936.25;6186886;23;20092;-76
2023/06/18 04:31:56;;;;;;;19.00;12.23;;;;;;;17.91;100.00;100924.78;6214898;23;20404;-76
2023/06/18 04:34:21;;;;;;;16.40;12.07;;;;;;;18.00;100.00;100926.53;6187138;23;20032;-76
2023/06/18 04:36:47;;;;;;;25.02;13.75;;;;;;;18.05;100.00;100917.72;6188019;23;20435;-76
2023/06/18 04:39:12;;;;;;;18.65;12.88;;;;;;;18.16;99.43;100920.16;6212389;23;20108;-77
2023/06/18 04:41:38;;;;;;;18.08;12.98;;;;;;;18.22;97.97;100921.38;6236346;23;20449;-76
2023/06/18 04:44:03;;;;;;;21.08;13.60;;;;;;;18.30;97.05;100913.97;6186764;23;20044;-77
2023/06/18 04:46:29;;;;;;;23.10;13.48;;;;;;;18.33;97.86;100907.19;6212629;23;20019;-77
2023/06/18 04:48:54;;;;;;;19.60;13.77;;;;;;;18.34;99.93;100903.41;6212392;23;20019;-78
2023/06/18 04:51:20;;;;;;;17.00;13.68;;;;;;;18.25;100.00;100902.53;6187527;23;20024;-78
2023/06/18 04:53:45;;;;;;;18.35;13.50;;;;;;;18.32;100.00;100919.34;6212291;23;20024;-80
2023/06/18 04:56:11;;;;;;;17.45;12.73;;;;;;;18.33;100.00;100907.19;6187795;23;20091;-80
2023/06/18 04:58:40;;;;;;;18.05;14.70;;;;;;;18.35;100.00;100906.00;6211710;23;20390;-79
2023/06/18 05:01:05;;;;;;;22.40;14.45;;;;;;;18.46;100.00;100907.59;6211643;23;20112;-80
2023/06/18 05:03:31;;;;;;;18.15;14.02;;;;;;;18.55;100.00;100906.53;6212706;23;20444;-80
2023/06/18 05:05:56;;;;;;;28.27;13.43;;;;;;;18.63;100.00;100907.59;6212490;23;20019;-79
2023/06/18 05:08:22;;;;;;;15.68;12.95;;;;;;;18.71;99.56;100899.28;6212433;23;20036;-80
2023/06/18 05:10:49;;;;;;;18.40;13.40;;;;;;;18.64;100.00;100901.84;6213463;23;20005;-80
2023/06/18 05:13:15;;;;;;;18.55;13.73;;;;;;;18.82;100.00;100911.91;6213358;23;20036;-79
2023/06/18 05:15:40;;;;;;;17.58;13.18;;;;;;;18.82;100.00;100909.13;6185690;23;20040;-80
2023/06/18 05:18:06;;;;;;;20.17;14.02;;;;;;;18.77;100.00;100914.34;6212161;23;20015;-80
2023/06/18 05:20:31;;;;;;;22.35;14.25;;;;;;;18.90;100.00;100914.69;6212116;23;20012;-79
2023/06/18 05:22:56;;;;;;;20.95;14.75;;;;;;;18.85;100.00;100925.47;6213384;23;20091;-80
2023/06/18 05:25:22;;;;;;;21.85;14.45;;;;;;;19.01;100.00;100925.44;6189307;23;20008;-80
2023/06/18 05:27:49;;;;;;;15.77;13.32;;;;;;;19.00;100.00;100918.16;6238580;23;20318;-79
2023/06/18 05:30:15;;;;;;;18.48;14.45;;;;;;;19.08;98.19;100936.72;6186747;23;20116;-79
2023/06/18 05:32:40;;;;;;;20.48;13.50;;;;;;;19.28;97.50;100924.19;6215375;23;20036;-78
2023/06/18 05:35:06;;;;;;;17.42;13.73;;;;;;;19.52;96.90;100925.16;6212756;23;20016;-79
2023/06/18 05:37:31;;;;;;;23.00;15.95;;;;;;;20.06;86.88;100940.25;6238549;23;20017;-80
2023/06/18 05:39:57;;;;;;;28.58;16.35;;;;;;;20.24;84.18;100934.44;6211904;23;20094;-79
2023/06/18 05:42:22;;;;;;;29.25;17.63;;;;;;;20.21;83.51;100935.66;6187985;23;20017;-77
2023/06/18 05:44:47;;;;;;;23.27;16.42;;;;;;;20.85;77.77;100946.50;6188428;23;20062;-78
2023/06/18 05:47:13;;;;;;;20.95;15.30;;;;;;;20.70;76.94;100946.47;6212914;23;20008;-78
2023/06/18 05:49:38;;;;;;;22.27;14.85;;;;;;;20.70;76.98;100946.47;6216289;23;20082;-80
2023/06/18 05:52:04;;;;;;;18.90;12.27;;;;;;;21.23;75.72;100951.22;6190124;23;20047;-79
2023/06/18 05:54:29;;;;;;;18.05;13.15;;;;;;;21.17;76.92;100949.19;6237661;23;20348;-78
2023/06/18 05:56:55;;;;;;;20.38;14.55;;;;;;;21.29;74.33;100945.75;6161116;23;20012;-78
2023/06/18 05:59:21;;;;;;;20.83;15.25;;;;;;;21.17;75.15;100940.81;6215387;23;20020;-78
2023/06/18 06:01:46;;;;;;;22.75;17.58;;;;;;;21.47;75.07;100945.41;6185438;23;20348;-79
2023/06/18 06:04:12;;;;;;;18.10;14.32;;;;;;;21.63;71.17;100949.94;6234892;23;20013;-79
2023/06/18 06:06:37;;;;;;;19.65;14.43;;;;;;;21.88;69.21;100944.06;6237081;23;20020;-79
2023/06/18 06:09:03;;;;;;;17.50;15.35;;;;;;;21.75;69.65;100943.91;6211856;23;20017;-79
2023/06/18 06:11:28;;;;;;;18.33;13.38;;;;;;;22.07;67.08;100948.19;6163952;23;20008;-78
2023/06/18 06:13:54;;;;;;;21.05;14.32;;;;;;;22.01;67.78;100946.16;6214728;23;20031;-78
2023/06/18 06:16:20;;;;;;;17.58;11.93;;;;;;;22.36;64.36;100943.63;6166221;23;20961;-79
2023/06/18 06:18:45;;;;;;;23.67;12.90;;;;;;;22.23;66.61;100949.88;6216200;23;20004;-79
2023/06/18 06:21:11;;;;;;;16.58;12.73;;;;;;;22.14;68.69;100939.91;6163531;23;20040;-78
2023/06/18 06:23:36;;;;;;;24.08;13.95;;;;;;;22.71;65.47;100944.66;6213449;23;20385;-78
2023/06/18 06:26:01;;;;;;;16.58;13.80;;;;;;;22.56;66.25;100941.91;6163351;23;20340;-78
2023/06/18 06:28:27;;;;;;;20.05;14.70;;;;;;;22.76;65.77;100944.91;6188155;23;20047;-78
2023/06/18 06:30:52;;;;;;;22.00;14.38;;;;;;;22.90;64.95;100950.63;6211236;23;20036;-78
2023/06/18 06:33:18;;;;;;;19.30;13.27;;;;;;;22.91;63.69;100944.84;6213305;23;20347;-79
2023/06/18 06:35:43;;;;;;;16.33;12.43;;;;;;;23.09;63.59;100960.28;6186965;23;20116;-78
2023/06/18 06:38:09;;;;;;;18.02;12.30;;;;;;;23.37;61.56;100962.22;6214090;23;20012;-78
2023/06/18 06:40:34;;;;;;;18.10;12.38;;;;;;;23.10;61.70;100948.91;6212135;23;20015;-77
2023/06/18 06:43:01;;;;;;;17.02;10.98;;;;;;;23.19;57.92;100946.81;6237365;23;20012;-79
2023/06/18 06:45:27;;;;;;;12.75;10.95;;;;;;;23.32;59.00;100951.66;6187376;23;20096;-78
2023/06/18 06:47:53;;;;;;;20.88;9.90;;;;;;;23.47;57.39;100963.56;6213644;23;20016;-80
2023/06/18 06:50:19;;;;;;;10.77;8.68;;;;;;;22.92;57.77;100960.53;6188285;23;20084;-80
2023/06/18 06:52:45;;;;;;;11.52;8.00;;;;;;;22.83;54.65;100966.44;6187850;23;20040;-79
2023/06/18 06:55:10;;;;;;;11.25;8.63;;;;;;;22.63;56.13;100966.22;6187525;23;20455;-79
2023/06/18 06:57:36;;;;;;;11.57;8.38;;;;;;;22.76;56.99;100963.59;6187460;23;20015;-78
2023/06/18 07:00:03;;;;;;;11.77;8.88;;;;;;;22.83;56.37;100970.09;6212690;23;20728;-78
2023/06/18 07:02:30;;;;;;;11.18;7.82;;;;;;;22.61;58.04;100971.16;6188095;23;20047;-79
2023/06/18 07:04:56;;;;;;;9.98;7.00;;;;;;;22.62;55.64;100976.53;6188587;23;20023;-79
2023/06/18 07:07:21;;;;;;;14.43;7.43;;;;;;;22.54;56.99;100979.44;6160672;23;20675;-78
2023/06/18 07:09:47;;;;;;;11.13;7.25;;;;;;;22.37;58.91;101026.25;6160185;23;20012;-79
2023/06/18 07:12:12;;;;;;;9.50;7.82;;;;;;;22.26;59.01;101022.00;6186119;23;20019;-80
2023/06/18 07:14:37;;;;;;;12.77;7.53;;;;;;;22.20;59.64;101009.72;6187287;23;20016;-80
2023/06/18 07:17:03;;;;;;;12.18;8.30;;;;;;;22.20;59.58;101006.94;6161147;23;20016;-77
2023/06/18 07:19:28;;;;;;;17.08;7.57;;;;;;;22.21;59.71;101007.78;6188334;23;20377;-78
2023/06/18 07:21:54;;;;;;;15.88;7.20;;;;;;;22.24;58.93;101004.59;6212347;23;20388;-79
2023/06/18 07:24:20;;;;;;;16.70;7.18;;;;;;;22.35;58.12;101008.84;6164811;23;20009;-79
2023/06/18 07:26:45;;;;;;;15.73;7.10;;;;;;;22.35;58.18;101008.84;6164084;23;20444;-79
2023/06/18 07:29:11;;;;;;;16.60;7.90;;;;;;;22.25;56.88;101003.56;6187264;23;20016;-79
2023/06/18 07:31:36;;;;;;;14.55;6.45;;;;;;;22.30;57.32;101009.44;6188669;23;20095;-78
2023/06/18 07:34:03;;;;;;;14.93;7.18;;;;;;;22.28;57.41;101010.66;6187484;23;20437;-78
2023/06/18 07:36:29;;;;;;;13.20;7.25;;;;;;;22.30;57.75;101009.44;6162826;23;20309;-79
2023/06/18 07:38:56;;;;;;;9.25;6.28;;;;;;;22.42;57.19;101012.59;6213226;23;20019;-80
2023/06/18 07:41:21;;;;;;;14.95;6.63;;;;;;;22.50;57.71;101004.09;6187973;23;20091;-79
2023/06/18 07:43:47;;;;;;;10.00;6.43;;;;;;;22.68;57.12;101005.59;6213230;23;20032;-79
2023/06/18 07:46:13;;;;;;;11.52;5.80;;;;;;;22.75;56.42;101007.38;6187430;23;20502;-79
2023/06/18 07:48:38;;;;;;;9.73;6.22;;;;;;;22.71;56.30;101002.38;6212177;23;20055;-79
2023/06/18 07:51:04;;;;;;;10.55;5.57;;;;;;;22.88;56.55;100995.50;6161642;23;20428;-78
2023/06/18 07:53:31;;;;;;;11.63;5.60;;;;;;;22.99;56.09;101001.59;6210420;23;20049;-76
2023/06/18 07:55:57;;;;;;;7.35;5.18;;;;;;;23.19;55.62;100999.91;6212264;23;20059;-76
2023/06/18 07:58:22;;;;;;;7.53;5.10;;;;;;;23.33;55.28;101000.84;6214378;23;20285;-75
2023/06/18 08:00:48;;;;;;;9.93;5.65;;;;;;;23.19;56.09;101007.44;6186234;23;20013;-75
2023/06/18 08:03:13;;;;;;;8.50;4.93;;;;;;;23.45;56.35;101001.19;6186408;23;20008;-76
2023/06/18 08:05:39;;;;;;;7.03;5.10;;;;;;;23.53;56.35;100995.44;6160594;23;20123;-76
2023/06/18 08:08:04;;;;;;;8.75;5.40;;;;;;;23.60;56.26;100998.28;6181025;23;20013;-77
2023/06/18 08:10:30;;;;;;;5.32;4.82;;;;;;;23.84;56.00;100992.25;6184834;23;20088;-75
2023/06/18 08:12:55;;;;;;;7.15;5.25;;;;;;;23.76;56.33;100988.69;6186458;23;20436;-76
2023/06/18 08:15:22;;;;;;;9.43;4.90;;;;;;;23.93;56.03;100987.34;6184383;23;20020;-77
2023/06/18 08:17:47;;;;;;;8.43;4.90;;;;;;;23.78;56.09;100984.63;6210454;23;20018;-77
2023/06/18 08:20:12;;;;;;;9.70;4.95;;;;;;;24.08;56.63;100986.34;6187745;23;20025;-75
2023/06/18 08:22:38;;;;;;;12.27;5.22;;;;;;;24.11;56.57;100977.53;6187316;23;20032;-77
2023/06/18 08:25:04;;;;;;;5.80;4.40;;;;;;;24.37;54.64;100983.25;6187642;23;20440;-76
2023/06/18 08:27:29;;;;;;;4.72;4.07;;;;;;;24.30;54.86;100975.88;6186443;23;20022;-77
2023/06/18 08:29:56;;;;;;;5.55;4.45;;;;;;;24.61;54.77;100978.16;6162279;23;20063;-76
2023/06/18 08:32:23;;;;;;;6.55;4.50;;;;;;;24.56;54.20;100976.03;6186510;23;20005;-78
2023/06/18 08:34:49;;;;;;;5.28;4.50;;;;;;;24.65;54.49;100976.69;6214107;23;20017;-77
2023/06/18 08:37:14;;;;;;;5.03;4.13;;;;;;;24.63;54.06;100969.56;6162166;23;20463;-80
2023/06/18 08:39:41;;;;;;;6.15;4.22;;;;;;;24.36;54.60;100973.09;6215202;23;20023;-80
2023/06/18 08:42:07;;;;;;;11.15;4.10;;;;;;;24.34;55.07;100971.59;6189055;23;20439;-81
2023/06/18 08:44:36;;;;;;;7.38;4.57;;;;;;;24.39;55.12;100974.63;6216061;23;20012;-79
2023/06/18 08:47:03;;;;;;;11.07;4.30;;;;;;;24.27;54.92;100962.31;6215882;23;20443;-82
2023/06/18 08:49:30;;;;;;;5.28;4.53;;;;;;;24.46;54.70;100972.69;6216078;23;20009;-79
2023/06/18 08:52:08;;;;;;;4.65;4.20;;;;;;;24.59;54.20;100967.16;6213157;23;20380;-78
2023/06/18 08:54:35;;;;;;;8.50;4.32;;;;;;;24.52;54.36;100965.41;6212529;23;20016;-78
2023/06/18 08:57:16;;;;;;;4.43;3.75;;;;;;;24.74;54.51;100967.00;6212090;23;20095;-78
2023/06/18 08:59:43;;;;;;;10.10;4.13;;;;;;;24.81;54.59;100971.75;6209381;23;20005;-77
2023/06/18 09:02:12;;;;;;;8.15;3.80;;;;;;;24.72;54.60;100966.34;6208371;23;20012;-77
2023/06/18 09:04:39;;;;;;;4.63;4.05;;;;;;;24.67;54.56;100973.66;6180288;23;20016;-78
2023/06/18 09:07:05;;;;;;;6.80;4.15;;;;;;;24.68;54.48;100967.84;6186148;23;20767;-77
2023/06/18 09:09:30;;;;;;;4.75;4.20;;;;;;;24.67;54.25;100970.88;6188938;23;20009;-78
2023/06/18 09:11:56;;;;;;;5.28;3.88;;;;;;;24.80;55.14;100965.28;6213653;23;20015;-78
2023/06/18 09:14:23;;;;;;;5.45;4.35;;;;;;;24.58;56.11;100970.22;6186479;23;20012;-77
2023/06/18 09:16:49;;;;;;;7.68;4.20;;;;;;;24.54;55.74;100966.06;6185605;23;20043;-77
2023/06/18 09:19:16;;;;;;;5.65;4.03;;;;;;;24.46;56.19;100971.84;6185911;23;20040;-78
2023/06/18 09:21:43;;;;;;;5.57;4.28;;;;;;;24.53;56.46;100962.41;6211611;23;20406;-78
2023/06/18 09:24:17;;;;;;;6.70;4.05;;;;;;;24.65;56.94;100965.47;6211774;23;20056;-78
2023/06/18 09:26:43;;;;;;;7.18;4.40;;;;;;;24.50;55.58;100968.44;6210304;23;20223;-78
2023/06/18 09:29:10;;;;;;;9.20;4.35;;;;;;;24.64;56.42;100965.69;6186368;23;20048;-77
2023/06/18 09:31:41;;;;;;;13.05;4.30;;;;;;;24.66;58.30;100964.41;6185625;23;20013;-78
2023/06/18 09:34:15;;;;;;;11.40;4.68;;;;;;;24.66;57.24;100964.41;6212810;23;20008;-78
2023/06/18 09:36:42;;;;;;;5.60;4.45;;;;;;;24.65;57.38;100967.44;6187227;23;20391;-79
2023/06/18 09:39:22;;;;;;;6.65;3.72;;;;;;;24.78;57.57;100967.44;6210796;23;20020;-77
2023/06/18 09:41:49;;;;;;;6.03;4.38;;;;;;;24.64;58.04;100966.53;6212296;23;20011;-77
2023/06/18 09:44:16;;;;;;;4.93;4.07;;;;;;;24.59;58.20;100964.38;6212359;23;20031;-76
2023/06/18 09:46:46;;;;;;;6.32;4.43;;;;;;;24.69;57.34;100965.91;6214674;23;20037;-77
2023/06/18 09:49:17;;;;;;;5.78;3.90;;;;;;;24.66;56.91;100972.81;6214150;23;20054;-76
2023/06/18 09:51:43;;;;;;;9.27;4.10;;;;;;;24.55;57.44;100968.69;6188461;23;20011;-76
2023/06/18 09:54:09;;;;;;;6.85;4.50;;;;;;;24.62;57.23;100962.25;6212671;23;20031;-76
2023/06/18 09:56:36;;;;;;;6.38;4.35;;;;;;;24.60;57.64;100965.25;6162992;23;20009;-77
2023/06/18 09:59:03;;;;;;;8.68;4.25;;;;;;;24.67;58.47;100965.25;6188016;23;20005;-77
2023/06/18 10:01:29;;;;;;;9.40;4.35;;;;;;;24.57;59.19;100974.06;6162771;23;20036;-77
2023/06/18 10:03:55;;;;;;;5.85;3.88;;;;;;;24.42;59.99;100965.81;6212697;23;20020;-76
2023/06/18 10:06:24;;;;;;;4.30;3.90;;;;;;;24.32;60.36;100974.63;6163391;23;20017;-76
2023/06/18 10:08:51;;;;;;;6.05;4.03;;;;;;;24.33;61.41;100961.47;6212828;23;20024;-77
2023/06/18 10:11:18;;;;;;;9.02;4.38;;;;;;;24.24;63.39;100972.00;6163980;23;20432;-76
2023/06/18 10:13:49;;;;;;;9.00;4.45;;;;;;;24.13;67.17;100967.84;6213587;23;20008;-77
2023/06/18 10:16:20;;;;;;;5.82;4.70;;;;;;;24.01;72.92;100964.78;6214032;23;20488;-76
2023/06/18 10:19:17;;;;;;;5.78;4.78;;;;;;;24.04;76.61;100967.16;6214016;23;20091;-77
2023/06/18 10:21:52;;;;;;;5.32;4.47;;;;;;;24.01;83.56;100953.59;6214165;23;20013;-77
2023/06/18 10:24:27;;;;;;;7.40;5.07;;;;;;;24.00;80.82;100949.06;6213935;23;20005;-76
2023/06/18 10:26:54;;;;;;;7.18;4.97;;;;;;;24.02;88.71;100938.56;6188784;23;20044;-75
2023/06/18 10:29:21;;;;;;;11.10;4.40;;;;;;;24.14;82.37;100947.22;6214355;23;20020;-75
2023/06/18 10:31:47;;;;;;;6.72;4.80;;;;;;;24.14;87.60;100940.75;6189539;23;20371;-75
2023/06/18 10:34:13;;;;;;;7.10;4.18;;;;;;;23.98;79.11;100940.03;6188371;23;20008;-76
2023/06/18 10:36:40;;;;;;;5.65;4.63;;;;;;;24.04;78.36;100930.81;6214841;23;20090;-77
2023/06/18 10:39:06;;;;;;;5.07;4.57;;;;;;;23.91;77.89;100939.13;6189557;23;20016;-76
2023/06/18 10:41:31;;;;;;;6.40;4.90;;;;;;;24.01;77.93;100931.22;6188616;23;20062;-77
2023/06/18 10:43:56;;;;;;;6.15;4.72;;;;;;;24.13;77.63;100925.03;6188435;23;20021;-76
2023/06/18 10:46:22;;;;;;;6.60;4.57;;;;;;;24.43;72.81;100933.09;6185558;23;20038;-77
2023/06/18 10:49:17;;;;;;;7.78;4.72;;;;;;;24.68;70.31;100939.00;6212752;23;20088;-76
2023/06/18 10:52:01;;;;;;;7.38;4.40;;;;;;;24.48;66.15;100944.50;6213227;23;20046;-80
2023/06/18 10:54:29;;;;;;;7.72;5.28;;;;;;;24.75;64.29;100932.31;6215428;23;20023;-80
2023/06/18 10:56:56;;;;;;;11.60;5.25;;;;;;;24.17;67.23;100940.31;6215424;23;20431;-81
2023/06/18 10:59:45;;;;;;;18.75;5.78;;;;;;;24.26;70.20;100927.88;6214440;23;20008;-80
2023/06/18 11:02:14;;;;;;;7.57;5.00;;;;;;;24.43;70.02;100925.53;6213625;23;20447;-81
2023/06/18 11:04:40;;;;;;;7.50;4.97;;;;;;;24.57;73.16;100927.31;6213257;23;20432;-80
2023/06/18 11:07:17;;;;;;;9.32;5.30;;;;;;;24.73;66.26;100928.88;6214048;23;20010;-80
2023/06/18 11:10:05;;;;;;;5.75;5.13;;;;;;;24.76;66.06;100936.84;6214066;23;20011;-80
2023/06/18 11:12:35;;;;;;;8.73;5.63;;;;;;;24.85;64.44;100933.84;6212583;23;20448;-79
2023/06/18 11:15:28;;;;;;;7.50;5.68;;;;;;;24.96;63.36;100938.81;6189059;23;20391;-80